首页
METAR-TAF:

METAR-TAF

机场 :

奥黑尔国际机场

芝加哥, 伊利诺伊州, 美国

纬度: 41-58-47N, 经度: 087-54-16W, 海拔: 203米

当前天气观测

该预报发布于23分钟前的20:51 UTC
风速12节,风向东北
温度 4°C
湿度 70%
气压 1010 hPa
能見度: 16.1公里
散云层高于3900英尺
散云层高于7500英尺
阴天层高于9000英尺

METAR: KORD 242051Z 04012KT 10SM SCT039 SCT075 OVC090 04/M01 A2983 RMK AO2 RAB12E30 SLP106 P0000 60000 T00441006 56014

时间: 15:14 (21:14 UTC)

预报

该预报发布于3小时和29分钟前的17:45 UTC
预报有效从24日的 18点(UTC)到 25日的 24点(UTC)
风速12节,风向东北
能見度: 10公里
少量云层高于2000英尺
阴天层高于12000英尺
从 25日的 0000点(UTC)
风速13节,风向东北,有时为19节阵风
能見度: 9.7公里
多云层高于2000英尺
阴天层高于5000英尺
小雨
从 25日的 0300点(UTC)
风速14节,风向东北,有时为21节阵风
能見度: 9.7公里
多云层高于900英尺
阴天层高于1500英尺
小雨
从 25日的 0600点(UTC)
风速14节,风向东北,有时为23节阵风
能見度: 6.4公里
多云层高于700英尺
阴天层高于1200英尺
小雨, 雪, 轻雾
从 25日的 1500点(UTC)
风速15节,风向东北,有时为25节阵风
能見度: 2.4公里
阴天层高于700英尺
小雪, 轻雾

TAF: KORD 241745Z 2418/2524 05012KT P6SM FEW020 OVC120 FM250000 05013G19KT 6SM -RA BKN020 OVC050 FM250300 05014G21KT 6SM -RA BKN009 OVC015 FM250600 05014G23KT 4SM -RASN BR BKN007 OVC012 FM251500 04015G25KT 1 1/2SM -SN BR OVC007

超过4000个机场的气象观测和天气预报(METAR&TAF报告)。

可查询的气象台以黄色和红色小点在地图上表示。

将鼠标移到小点上方,可查看气象台名称。

然后点击查看天气观测和预报。

如需切换地图:点击带黑十字的绿色按钮放大地图;点击带横线的绿色按钮缩小地图;或者点击绿色箭头查看邻近地区的地图。


METAR-TAF: